Time;durP1;ratioP1;P1;durP2;ratioP2;P2;SDS_P1;SDS_P2;PMS_P1;PMS_P2;Temp;Humidity;BMP_temperature;BMP_pressure;BME280_temperature;BME280_humidity;BME280_pressure;Samples;Min_cycle;Max_cycle;Signal;HPM_P1;HPM_P2
2023/05/01 00:01:17;;;;;;;9.50;4.40;;;11.80;74.70;;;;;;5054542;28;20090;-67
2023/05/01 00:03:43;;;;;;;7.22;4.40;;;11.80;74.30;;;;;;5054127;28;20406;-68
2023/05/01 00:06:09;;;;;;;10.95;4.43;;;11.70;74.40;;;;;;5054381;28;20024;-67
2023/05/01 00:08:35;;;;;;;9.27;5.03;;;11.70;74.60;;;;;;5054316;28;20056;-67
2023/05/01 00:11:04;;;;;;;9.75;4.38;;;11.70;74.70;;;;;;5053922;28;20411;-67
2023/05/01 00:13:31;;;;;;;5.13;3.88;;;11.70;74.40;;;;;;5054190;28;20021;-67
2023/05/01 00:15:57;;;;;;;7.05;3.97;;;11.60;74.90;;;;;;5053724;28;20021;-67
2023/05/01 00:18:22;;;;;;;10.02;4.35;;;11.60;74.80;;;;;;5052773;28;20021;-67
2023/05/01 00:20:48;;;;;;;6.18;4.07;;;11.60;74.90;;;;;;5053325;28;20458;-67
2023/05/01 00:23:13;;;;;;;14.43;4.88;;;11.60;74.80;;;;;;5052475;28;20017;-67
2023/05/01 00:25:39;;;;;;;6.30;4.10;;;11.60;74.40;;;;;;5053988;28;20031;-66
2023/05/01 00:28:05;;;;;;;8.10;4.50;;;11.60;74.40;;;;;;5053908;28;20017;-67
2023/05/01 00:30:34;;;;;;;6.70;3.95;;;11.50;74.20;;;;;;5053905;28;20434;-67
2023/05/01 00:33:00;;;;;;;6.13;3.63;;;11.50;74.50;;;;;;5053505;28;20094;-67
2023/05/01 00:35:26;;;;;;;8.20;4.20;;;11.50;74.50;;;;;;5053808;28;20025;-67
2023/05/01 00:37:52;;;;;;;6.75;4.22;;;11.40;74.30;;;;;;5053340;28;20075;-67
2023/05/01 00:40:18;;;;;;;7.97;3.97;;;11.40;74.20;;;;;;5053756;28;20033;-67
2023/05/01 00:42:43;;;;;;;7.07;4.05;;;11.40;74.50;;;;;;5053641;28;20021;-67
2023/05/01 00:45:09;;;;;;;8.13;4.28;;;11.40;74.70;;;;;;5053506;28;20110;-67
2023/05/01 00:47:36;;;;;;;6.82;4.20;;;11.40;74.60;;;;;;5053706;28;20484;-67
2023/05/01 00:50:02;;;;;;;8.25;3.92;;;11.30;74.50;;;;;;5052746;28;20107;-66
2023/05/01 00:52:28;;;;;;;6.88;4.20;;;11.30;74.30;;;;;;5052406;28;20307;-66
2023/05/01 00:54:54;;;;;;;7.28;3.75;;;11.30;74.10;;;;;;5052829;28;20024;-67
2023/05/01 00:57:20;;;;;;;9.38;4.35;;;11.30;74.50;;;;;;5053558;28;20108;-67
2023/05/01 00:59:47;;;;;;;8.38;4.07;;;11.20;74.30;;;;;;5053289;28;20032;-67
2023/05/01 01:02:13;;;;;;;6.13;3.95;;;11.20;74.70;;;;;;5053435;28;20021;-65
2023/05/01 01:04:43;;;;;;;10.93;4.00;;;11.20;74.60;;;;;;5053393;28;20446;-65
2023/05/01 01:07:21;;;;;;;9.37;4.63;;;11.20;74.70;;;;;;5052632;28;20429;-67
2023/05/01 01:09:56;;;;;;;7.97;3.55;;;11.10;74.60;;;;;;5053133;28;20242;-66
2023/05/01 01:12:49;;;;;;;7.55;3.72;;;11.10;74.70;;;;;;5053354;28;20365;-66
2023/05/01 01:15:38;;;;;;;5.60;3.33;;;11.10;74.40;;;;;;5053566;28;20040;-66
2023/05/01 01:18:20;;;;;;;8.40;3.90;;;11.10;74.30;;;;;;5052552;28;20454;-66
2023/05/01 01:21:05;;;;;;;7.13;3.75;;;11.10;74.40;;;;;;5053063;28;20033;-66
2023/05/01 01:24:02;;;;;;;6.78;3.90;;;11.10;74.20;;;;;;5053200;28;20017;-66
2023/05/01 01:27:05;;;;;;;8.38;3.95;;;11.10;73.80;;;;;;5042446;28;20380;-66
2023/05/01 01:29:40;;;;;;;5.60;3.80;;;11.00;73.90;;;;;;5052533;28;20464;-66
2023/05/01 01:32:30;;;;;;;7.15;3.72;;;11.00;74.20;;;;;;5051405;28;20052;-66
2023/05/01 01:35:03;;;;;;;10.60;4.00;;;11.00;73.90;;;;;;5052643;28;20017;-67
2023/05/01 01:37:51;;;;;;;12.82;4.05;;;11.00;73.30;;;;;;5053028;28;20434;-66
2023/05/01 01:40:24;;;;;;;7.57;4.18;;;10.90;73.60;;;;;;5052782;28;20044;-66
2023/05/01 01:43:15;;;;;;;11.88;4.28;;;10.90;73.90;;;;;;5052375;28;20047;-68
2023/05/01 01:45:45;;;;;;;7.25;3.85;;;10.90;73.80;;;;;;5052914;28;20045;-66
2023/05/01 01:48:16;;;;;;;10.02;3.97;;;10.80;74.00;;;;;;5051946;28;20098;-66
2023/05/01 01:50:44;;;;;;;6.63;3.55;;;10.80;74.20;;;;;;5052810;28;20090;-67
2023/05/01 01:53:13;;;;;;;7.57;3.58;;;10.80;74.00;;;;;;5052299;28;20029;-66
2023/05/01 01:55:41;;;;;;;10.73;4.38;;;10.80;73.80;;;;;;5052641;28;20361;-66
2023/05/01 01:58:09;;;;;;;10.68;3.90;;;10.70;73.80;;;;;;5052300;28;20017;-66
2023/05/01 02:00:36;;;;;;;7.90;3.83;;;10.70;74.60;;;;;;5052170;28;20044;-66
2023/05/01 02:03:03;;;;;;;11.40;3.72;;;10.70;73.80;;;;;;5051940;28;20373;-66
2023/05/01 02:05:31;;;;;;;8.23;3.30;;;10.70;73.80;;;;;;5052574;28;20025;-67
2023/05/01 02:07:57;;;;;;;6.90;3.72;;;10.70;73.90;;;;;;5052164;28;20014;-67
2023/05/01 02:10:25;;;;;;;7.05;3.90;;;10.70;73.80;;;;;;5052508;28;20461;-66
2023/05/01 02:12:52;;;;;;;9.63;4.03;;;10.70;73.60;;;;;;5052498;28;20330;-66
2023/05/01 02:15:18;;;;;;;5.57;3.63;;;10.70;74.20;;;;;;5052643;28;20052;-66
2023/05/01 02:17:44;;;;;;;9.23;3.90;;;10.70;73.70;;;;;;5052443;28;20017;-66
2023/05/01 02:20:12;;;;;;;10.60;3.90;;;10.60;73.60;;;;;;5051970;28;20036;-66
2023/05/01 02:22:40;;;;;;;7.20;3.80;;;10.60;73.60;;;;;;5052167;28;20405;-66
2023/05/01 02:25:09;;;;;;;8.55;4.10;;;10.60;74.10;;;;;;5051620;28;20045;-66
2023/05/01 02:27:39;;;;;;;6.72;3.95;;;10.60;73.80;;;;;;5052151;28;20017;-66
2023/05/01 02:30:06;;;;;;;12.60;5.13;;;10.50;73.80;;;;;;5052076;28;20104;-67
2023/05/01 02:32:32;;;;;;;8.90;4.13;;;10.50;74.10;;;;;;5052178;28;20484;-67
2023/05/01 02:34:59;;;;;;;9.13;3.60;;;10.50;74.00;;;;;;5052105;28;20052;-66
2023/05/01 02:37:25;;;;;;;10.85;4.88;;;10.40;74.30;;;;;;5052305;28;20071;-66
2023/05/01 02:39:51;;;;;;;8.55;3.95;;;10.40;74.30;;;;;;5052225;28;20021;-66
2023/05/01 02:42:20;;;;;;;8.60;3.88;;;10.40;74.30;;;;;;5054238;28;20070;-66
2023/05/01 02:44:54;;;;;;;9.93;4.05;;;10.40;74.40;;;;;;5054249;28;20389;-67
2023/05/01 02:47:22;;;;;;;9.27;3.92;;;10.30;74.40;;;;;;5055356;28;20049;-67
2023/05/01 02:49:50;;;;;;;7.72;3.70;;;10.30;74.30;;;;;;5055720;28;20074;-67
2023/05/01 02:52:17;;;;;;;6.45;3.30;;;10.30;74.50;;;;;;5055256;28;20029;-66
2023/05/01 02:54:44;;;;;;;8.55;4.32;;;10.20;74.70;;;;;;5055936;28;20078;-66
2023/05/01 02:57:10;;;;;;;9.60;4.30;;;10.20;74.60;;;;;;5055375;28;20465;-66
2023/05/01 02:59:36;;;;;;;9.02;4.10;;;10.20;74.80;;;;;;5055643;28;20021;-66
2023/05/01 03:02:02;;;;;;;8.10;3.90;;;10.20;74.70;;;;;;5055609;28;20456;-66
2023/05/01 03:04:28;;;;;;;11.55;3.70;;;10.20;74.80;;;;;;5055621;28;20025;-66
2023/05/01 03:06:54;;;;;;;8.25;4.18;;;10.20;74.90;;;;;;5055610;28;20020;-66
2023/05/01 03:09:20;;;;;;;11.82;4.07;;;10.10;74.90;;;;;;5055046;28;20029;-66
2023/05/01 03:11:46;;;;;;;5.22;3.65;;;10.10;74.90;;;;;;5055525;28;20079;-66
2023/05/01 03:14:12;;;;;;;10.95;4.13;;;10.10;75.50;;;;;;5054723;28;20435;-66
2023/05/01 03:16:38;;;;;;;6.72;3.80;;;10.10;75.50;;;;;;5055144;28;20025;-66
2023/05/01 03:19:04;;;;;;;4.95;3.60;;;10.10;75.60;;;;;;5054762;28;20070;-66
2023/05/01 03:21:31;;;;;;;8.07;3.95;;;10.10;75.50;;;;;;5055160;28;20048;-66
2023/05/01 03:23:57;;;;;;;7.78;3.60;;;10.00;75.90;;;;;;5055213;28;20413;-71
2023/05/01 03:26:23;;;;;;;8.88;4.65;;;10.00;75.90;;;;;;5055203;28;20035;-66
2023/05/01 03:28:49;;;;;;;5.88;3.80;;;10.00;75.70;;;;;;5055234;28;20028;-67
2023/05/01 03:31:14;;;;;;;9.63;4.00;;;10.00;75.50;;;;;;5054779;28;20025;-67
2023/05/01 03:33:40;;;;;;;7.45;3.88;;;10.00;75.60;;;;;;5055079;28;20025;-67
2023/05/01 03:36:07;;;;;;;9.52;3.67;;;10.00;75.60;;;;;;5054674;28;20021;-66
2023/05/01 03:38:33;;;;;;;10.07;3.90;;;10.00;75.60;;;;;;5055013;28;20381;-66
2023/05/01 03:40:58;;;;;;;12.63;4.65;;;9.90;75.50;;;;;;5053417;28;20028;-71
2023/05/01 03:43:25;;;;;;;7.93;3.90;;;9.90;75.80;;;;;;5054651;28;20028;-66
2023/05/01 03:45:51;;;;;;;7.55;4.75;;;9.90;75.70;;;;;;5054870;28;20124;-66
2023/05/01 03:48:18;;;;;;;12.75;4.20;;;9.90;76.00;;;;;;5054472;28;20472;-66
2023/05/01 03:50:43;;;;;;;10.23;3.80;;;9.90;76.00;;;;;;5054766;28;20021;-66
2023/05/01 03:53:09;;;;;;;6.45;3.83;;;9.90;76.10;;;;;;5053727;28;20104;-66
2023/05/01 03:55:35;;;;;;;9.52;4.40;;;9.90;76.30;;;;;;5054667;28;20376;-66
2023/05/01 03:58:01;;;;;;;10.48;3.95;;;9.90;76.40;;;;;;5054252;28;20074;-68
2023/05/01 04:00:27;;;;;;;10.73;4.70;;;9.90;77.40;;;;;;5054209;28;20033;-65
2023/05/01 04:02:53;;;;;;;8.38;4.90;;;9.90;78.70;;;;;;5054612;28;20052;-66
2023/05/01 04:05:20;;;;;;;5.93;4.45;;;9.90;80.10;;;;;;5054078;28;20401;-65
2023/05/01 04:07:46;;;;;;;7.38;4.72;;;9.90;80.70;;;;;;5054104;28;20359;-66
2023/05/01 04:10:11;;;;;;;8.52;4.88;;;9.90;81.50;;;;;;5053677;28;20032;-66
2023/05/01 04:12:37;;;;;;;10.10;5.38;;;10.00;82.70;;;;;;5054257;28;20032;-66
2023/05/01 04:15:03;;;;;;;9.93;5.28;;;9.90;83.70;;;;;;5053995;28;20100;-67
2023/05/01 04:17:29;;;;;;;9.40;5.45;;;9.90;84.70;;;;;;5054150;28;20027;-66
2023/05/01 04:19:55;;;;;;;10.23;5.00;;;9.80;84.90;;;;;;5053809;28;20025;-66
2023/05/01 04:22:22;;;;;;;11.32;5.28;;;9.80;85.60;;;;;;5053716;28;20497;-66
2023/05/01 04:24:48;;;;;;;7.72;5.13;;;9.80;85.90;;;;;;5054162;28;20032;-66
2023/05/01 04:27:13;;;;;;;12.18;5.50;;;9.90;86.20;;;;;;5053761;28;20358;-66
2023/05/01 04:29:40;;;;;;;7.55;5.03;;;9.90;86.00;;;;;;5054012;28;20067;-66
2023/05/01 04:32:06;;;;;;;10.30;5.60;;;9.90;85.90;;;;;;5053575;28;20499;-65
2023/05/01 04:34:32;;;;;;;7.20;4.80;;;10.00;87.00;;;;;;5053646;28;20083;-65
2023/05/01 04:36:58;;;;;;;9.88;5.65;;;10.00;87.80;;;;;;5053970;28;20025;-66
2023/05/01 04:39:23;;;;;;;8.35;4.85;;;10.10;87.00;;;;;;5053174;28;20021;-65
2023/05/01 04:41:49;;;;;;;7.05;4.88;;;10.20;87.00;;;;;;5053731;28;20468;-65
2023/05/01 04:44:15;;;;;;;7.43;4.55;;;10.30;85.70;;;;;;5053110;28;20132;-65
2023/05/01 04:46:41;;;;;;;8.98;5.03;;;10.50;85.40;;;;;;5053723;28;20388;-66
2023/05/01 04:49:07;;;;;;;14.45;5.47;;;10.60;85.40;;;;;;5052667;28;20023;-66
2023/05/01 04:51:32;;;;;;;11.48;5.38;;;10.80;84.60;;;;;;5053651;28;20052;-67
2023/05/01 04:53:58;;;;;;;10.23;5.28;;;10.90;84.10;;;;;;5053548;28;20048;-67
2023/05/01 04:56:25;;;;;;;10.25;5.05;;;11.10;83.10;;;;;;5053115;28;20424;-65
2023/05/01 04:58:50;;;;;;;7.63;4.32;;;11.10;82.10;;;;;;5053419;28;20025;-67
2023/05/01 05:01:16;;;;;;;8.77;4.35;;;11.20;81.70;;;;;;5052951;28;20469;-66
2023/05/01 05:03:42;;;;;;;11.00;5.25;;;11.30;80.80;;;;;;5052677;28;20017;-66
2023/05/01 05:06:08;;;;;;;8.07;4.63;;;11.30;80.40;;;;;;5051576;28;20122;-65
2023/05/01 05:08:33;;;;;;;12.68;4.70;;;11.30;80.30;;;;;;5053220;28;20024;-65
2023/05/01 05:10:59;;;;;;;9.65;4.38;;;11.40;81.00;;;;;;5053033;28;20021;-66
2023/05/01 05:13:25;;;;;;;9.50;4.85;;;11.60;80.30;;;;;;5052407;28;20363;-66
2023/05/01 05:15:51;;;;;;;17.08;4.63;;;11.80;79.50;;;;;;5053082;28;20021;-66
2023/05/01 05:18:17;;;;;;;9.40;5.10;;;11.90;77.80;;;;;;5052519;28;20533;-66
2023/05/01 05:20:43;;;;;;;6.22;4.68;;;12.00;77.40;;;;;;5053063;28;20036;-66
2023/05/01 05:23:09;;;;;;;6.45;4.80;;;12.00;75.30;;;;;;5051541;28;20021;-66
2023/05/01 05:25:34;;;;;;;9.93;5.22;;;12.10;75.20;;;;;;5053132;28;20024;-65
2023/05/01 05:28:00;;;;;;;8.55;4.70;;;12.20;74.40;;;;;;5053017;28;20029;-66
2023/05/01 05:30:26;;;;;;;8.20;4.65;;;12.40;72.50;;;;;;5051301;28;20250;-65
2023/05/01 05:32:52;;;;;;;10.05;4.22;;;12.50;71.40;;;;;;5052629;28;20025;-65
2023/05/01 05:35:18;;;;;;;7.07;4.20;;;12.80;70.70;;;;;;5052188;28;20116;-66
2023/05/01 05:37:43;;;;;;;10.68;5.18;;;13.10;71.00;;;;;;5053095;28;20033;-66
2023/05/01 05:40:09;;;;;;;7.72;4.45;;;13.60;67.60;;;;;;5052424;28;20104;-66
2023/05/01 05:42:35;;;;;;;7.68;4.43;;;13.80;66.00;;;;;;5052688;28;20029;-66
2023/05/01 05:45:01;;;;;;;8.00;4.50;;;14.10;64.90;;;;;;5052553;28;20052;-68
2023/05/01 05:47:27;;;;;;;10.77;4.25;;;14.40;63.80;;;;;;5052310;28;20025;-66
2023/05/01 05:49:54;;;;;;;8.23;4.70;;;14.70;61.20;;;;;;5052605;28;20476;-66
2023/05/01 05:52:20;;;;;;;8.10;4.00;;;14.90;60.90;;;;;;5052298;28;20028;-66
2023/05/01 05:54:46;;;;;;;8.68;4.38;;;15.20;59.40;;;;;;5052292;28;20029;-67
2023/05/01 05:57:11;;;;;;;10.35;4.38;;;15.50;59.00;;;;;;5052415;28;20028;-66
2023/05/01 05:59:37;;;;;;;6.90;3.78;;;15.80;57.40;;;;;;5052652;28;20457;-69
2023/05/01 06:02:03;;;;;;;12.43;5.88;;;16.10;56.60;;;;;;5052602;28;20037;-66
2023/05/01 06:04:29;;;;;;;6.32;3.60;;;16.30;56.60;;;;;;5052120;28;20025;-67
2023/05/01 06:06:55;;;;;;;8.82;3.83;;;16.50;55.80;;;;;;5052298;28;20017;-66
2023/05/01 06:09:20;;;;;;;9.05;3.92;;;16.80;54.20;;;;;;5051968;28;20040;-66
2023/05/01 06:11:47;;;;;;;9.68;4.30;;;17.00;53.50;;;;;;5051804;28;20036;-66
2023/05/01 06:14:12;;;;;;;9.73;5.03;;;17.10;52.40;;;;;;5052145;28;20395;-66
2023/05/01 06:16:38;;;;;;;7.85;4.00;;;17.00;51.90;;;;;;5055338;28;20052;-66
2023/05/01 06:19:04;;;;;;;8.85;3.78;;;17.20;52.30;;;;;;5056503;28;20020;-66
2023/05/01 06:21:31;;;;;;;9.57;4.57;;;17.30;51.60;;;;;;5055853;28;20489;-65
2023/05/01 06:23:57;;;;;;;7.55;4.38;;;17.40;51.10;;;;;;5056293;28;20453;-66
2023/05/01 06:26:22;;;;;;;8.75;4.30;;;17.50;51.00;;;;;;5055961;28;20052;-66
2023/05/01 06:28:48;;;;;;;7.85;4.63;;;17.80;51.50;;;;;;5056304;28;20491;-66
2023/05/01 06:31:14;;;;;;;9.80;4.43;;;17.80;50.70;;;;;;5055610;28;20079;-67
2023/05/01 06:33:40;;;;;;;8.27;4.18;;;18.10;49.80;;;;;;5055991;28;20035;-66
2023/05/01 06:36:06;;;;;;;7.32;3.92;;;18.40;50.10;;;;;;5056233;28;20052;-66
2023/05/01 06:38:34;;;;;;;7.97;4.28;;;18.70;48.30;;;;;;5055600;28;20114;-65
2023/05/01 06:41:00;;;;;;;8.40;3.97;;;19.00;47.90;;;;;;5055863;28;20037;-66
2023/05/01 06:43:29;;;;;;;7.10;3.88;;;19.50;47.90;;;;;;5055538;28;20103;-66
2023/05/01 06:45:55;;;;;;;8.50;3.85;;;20.10;46.00;;;;;;5056161;28;20048;-66
2023/05/01 06:48:21;;;;;;;6.93;3.88;;;20.60;45.70;;;;;;5054931;28;20029;-66
2023/05/01 06:50:46;;;;;;;11.65;4.20;;;20.90;44.30;;;;;;5055985;28;20032;-66
2023/05/01 06:53:13;;;;;;;9.23;4.68;;;20.90;43.10;;;;;;5055337;28;20071;-65
2023/05/01 06:55:38;;;;;;;11.40;4.90;;;21.00;43.20;;;;;;5054526;28;20029;-66
2023/05/01 06:58:05;;;;;;;7.82;3.92;;;21.40;43.30;;;;;;5055729;28;20021;-66
2023/05/01 07:00:32;;;;;;;8.05;4.35;;;21.60;42.80;;;;;;5055155;28;20029;-67
2023/05/01 07:02:58;;;;;;;6.32;4.40;;;21.80;42.70;;;;;;5055701;28;20029;-67
2023/05/01 07:05:24;;;;;;;7.55;4.60;;;21.80;42.80;;;;;;5055496;28;20024;-67
2023/05/01 07:07:49;;;;;;;7.07;4.20;;;22.10;42.10;;;;;;5055568;28;20099;-66
2023/05/01 07:10:15;;;;;;;7.10;4.32;;;22.50;42.10;;;;;;5055313;28;20029;-67
2023/05/01 07:12:41;;;;;;;7.18;4.18;;;22.80;42.30;;;;;;5055521;28;20033;-67
2023/05/01 07:15:07;;;;;;;6.95;4.20;;;23.00;40.60;;;;;;5055442;28;20453;-66
2023/05/01 07:17:33;;;;;;;9.43;4.72;;;22.80;40.30;;;;;;5055008;28;20025;-67
2023/05/01 07:20:00;;;;;;;10.75;4.32;;;22.90;39.60;;;;;;5055179;28;20021;-67
2023/05/01 07:22:25;;;;;;;8.13;4.15;;;22.50;39.50;;;;;;5054783;28;20059;-66
2023/05/01 07:24:51;;;;;;;8.15;3.97;;;22.00;40.70;;;;;;5055301;28;20114;-66
2023/05/01 07:27:17;;;;;;;8.75;4.10;;;21.60;40.50;;;;;;5053813;28;20032;-68
2023/05/01 07:29:43;;;;;;;6.85;4.40;;;21.30;42.30;;;;;;5055577;28;20025;-66
2023/05/01 07:32:09;;;;;;;7.57;4.25;;;21.30;41.60;;;;;;5055073;28;20116;-67
2023/05/01 07:34:34;;;;;;;8.27;4.25;;;21.30;41.40;;;;;;5053274;28;20386;-67
2023/05/01 07:37:00;;;;;;;6.97;4.32;;;21.00;42.20;;;;;;5053708;28;20079;-67
2023/05/01 07:39:26;;;;;;;10.60;4.60;;;20.80;42.90;;;;;;5054308;28;20096;-67
2023/05/01 07:41:52;;;;;;;8.77;4.47;;;21.00;43.90;;;;;;5054882;28;20124;-68
2023/05/01 07:44:17;;;;;;;5.82;3.92;;;21.70;43.10;;;;;;5053205;28;20041;-68
2023/05/01 07:46:43;;;;;;;7.30;4.10;;;22.10;42.30;;;;;;5054629;28;20377;-67
2023/05/01 07:49:09;;;;;;;8.63;4.40;;;22.20;41.70;;;;;;5054391;28;20017;-67
2023/05/01 07:51:35;;;;;;;7.18;4.18;;;22.10;42.40;;;;;;5053995;28;20032;-66
2023/05/01 07:54:03;;;;;;;8.32;4.55;;;23.00;41.50;;;;;;5054552;28;20021;-66
2023/05/01 07:56:30;;;;;;;6.47;4.28;;;22.70;41.30;;;;;;5052613;28;20025;-66
2023/05/01 07:58:56;;;;;;;8.10;4.32;;;22.90;41.80;;;;;;5054509;28;20339;-66
2023/05/01 08:01:21;;;;;;;8.10;4.32;;;23.50;40.80;;;;;;5053910;28;20094;-67
2023/05/01 08:03:47;;;;;;;5.97;4.00;;;23.50;39.80;;;;;;5054347;28;20025;-65
2023/05/01 08:06:13;;;;;;;8.65;4.90;;;23.80;40.70;;;;;;5054178;28;20028;-66
2023/05/01 08:08:39;;;;;;;7.55;5.43;;;24.20;40.40;;;;;;5053595;28;20406;-66
2023/05/01 08:11:05;;;;;;;6.80;4.78;;;24.90;40.80;;;;;;5053209;28;20033;-66
2023/05/01 08:13:30;;;;;;;5.82;4.57;;;25.60;39.10;;;;;;5053882;28;20024;-67
2023/05/01 08:16:02;;;;;;;6.30;4.80;;;26.00;38.00;;;;;;5054382;28;20029;-67
2023/05/01 08:18:29;;;;;;;8.27;4.47;;;26.00;37.40;;;;;;5053984;28;20024;-67
2023/05/01 08:20:55;;;;;;;6.32;4.68;;;26.30;37.90;;;;;;5053937;28;20384;-66
2023/05/01 08:23:22;;;;;;;7.03;4.72;;;27.20;37.10;;;;;;5053817;28;20025;-67
2023/05/01 08:25:50;;;;;;;8.10;4.88;;;26.90;35.80;;;;;;5052889;28;20025;-67
2023/05/01 08:28:19;;;;;;;9.02;5.43;;;26.20;36.90;;;;;;5053746;28;20373;-67
2023/05/01 08:30:45;;;;;;;7.78;4.97;;;25.10;37.90;;;;;;5054053;28;20100;-66
2023/05/01 08:33:10;;;;;;;6.70;4.45;;;24.10;39.60;;;;;;5053998;28;20048;-66
2023/05/01 08:35:36;;;;;;;7.78;5.13;;;23.70;41.30;;;;;;5053296;28;20021;-67
2023/05/01 08:38:02;;;;;;;6.93;5.28;;;24.10;41.20;;;;;;5053998;28;20025;-67
2023/05/01 08:40:32;;;;;;;8.48;5.28;;;23.60;41.80;;;;;;5052280;28;20387;-66
2023/05/01 08:43:00;;;;;;;8.52;5.43;;;22.80;43.20;;;;;;5053884;28;20024;-66
2023/05/01 08:45:28;;;;;;;7.53;5.40;;;22.30;44.70;;;;;;5052953;28;20041;-66
2023/05/01 08:47:54;;;;;;;8.55;5.10;;;21.60;46.30;;;;;;5053681;28;20028;-67
2023/05/01 08:50:21;;;;;;;11.57;5.22;;;21.30;48.00;;;;;;5053684;28;20032;-66
2023/05/01 08:52:50;;;;;;;7.18;4.38;;;21.20;48.20;;;;;;5053764;28;20013;-67
2023/05/01 08:55:16;;;;;;;6.85;4.90;;;21.00;49.40;;;;;;5053194;28;20440;-67
2023/05/01 08:57:46;;;;;;;8.68;4.07;;;21.00;48.10;;;;;;5053027;28;20036;-67
2023/05/01 09:00:20;;;;;;;4.60;3.83;;;21.00;48.70;;;;;;5053362;28;20033;-67
2023/05/01 09:02:47;;;;;;;5.57;3.90;;;20.70;48.10;;;;;;5053152;28;20032;-66
2023/05/01 09:05:15;;;;;;;6.97;3.95;;;20.50;49.00;;;;;;5053132;28;20029;-67
2023/05/01 09:07:42;;;;;;;5.82;3.85;;;20.40;49.50;;;;;;5052992;28;20365;-66
2023/05/01 09:10:10;;;;;;;6.40;4.03;;;20.20;48.80;;;;;;5053098;28;20461;-68
2023/05/01 09:12:37;;;;;;;6.13;3.45;;;19.70;49.90;;;;;;5053142;28;20020;-67
2023/05/01 09:15:03;;;;;;;6.47;3.75;;;19.50;51.10;;;;;;5053235;28;20423;-67
2023/05/01 09:17:30;;;;;;;5.47;3.25;;;19.40;52.30;;;;;;5052866;28;20449;-66
2023/05/01 09:19:56;;;;;;;8.40;2.95;;;19.50;52.40;;;;;;5053214;28;20017;-67
2023/05/01 09:22:22;;;;;;;5.20;3.17;;;19.50;52.80;;;;;;5052017;28;20024;-67
2023/05/01 09:24:48;;;;;;;6.05;4.00;;;19.40;52.10;;;;;;5051828;28;20021;-67
2023/05/01 09:27:14;;;;;;;7.13;3.22;;;19.40;52.80;;;;;;5053074;28;20331;-67
2023/05/01 09:29:45;;;;;;;6.30;4.03;;;19.30;53.30;;;;;;5052710;28;20112;-67
2023/05/01 09:32:14;;;;;;;5.78;3.50;;;19.10;53.60;;;;;;5052052;28;20408;-67
2023/05/01 09:34:41;;;;;;;5.05;3.30;;;19.20;54.10;;;;;;5052547;28;20179;-67
2023/05/01 09:37:10;;;;;;;7.70;3.53;;;19.00;54.50;;;;;;5051764;28;20021;-67
2023/05/01 09:39:37;;;;;;;7.97;3.60;;;19.10;55.10;;;;;;5052309;28;20044;-67
2023/05/01 09:42:03;;;;;;;5.03;3.28;;;19.00;55.30;;;;;;5054794;28;20029;-67
2023/05/01 09:44:29;;;;;;;5.63;3.42;;;18.90;55.80;;;;;;5055191;28;20033;-67
2023/05/01 09:46:55;;;;;;;7.22;3.90;;;18.90;55.50;;;;;;5055415;28;20021;-67
2023/05/01 09:49:46;;;;;;;9.10;3.97;;;18.80;55.90;;;;;;5053190;28;20476;-66
2023/05/01 09:52:12;;;;;;;;;;;18.80;56.80;;;;;;5053057;28;20033;-67
2023/05/01 09:54:37;;;;;;;8.13;4.47;;;18.70;56.30;;;;;;5052315;28;19900;-67
2023/05/01 09:57:03;;;;;;;6.30;3.50;;;18.70;56.90;;;;;;5052748;28;20380;-66
2023/05/01 09:59:33;;;;;;;10.98;4.18;;;18.80;57.20;;;;;;5051793;28;20047;-67
2023/05/01 10:01:58;;;;;;;7.15;4.10;;;18.80;57.50;;;;;;5051226;28;20461;-66
2023/05/01 10:04:34;;;;;;;6.40;4.15;;;18.80;57.50;;;;;;5052244;28;20032;-67
2023/05/01 10:07:12;;;;;;;5.95;3.65;;;19.00;58.20;;;;;;5051240;28;20049;-67
2023/05/01 10:09:38;;;;;;;5.78;3.90;;;19.10;57.70;;;;;;5052188;28;20033;-67
2023/05/01 10:12:04;;;;;;;7.55;3.97;;;19.20;58.00;;;;;;5052075;28;20045;-66
2023/05/01 10:14:32;;;;;;;7.78;3.97;;;19.20;57.20;;;;;;5052017;28;20049;-67
2023/05/01 10:16:58;;;;;;;16.92;3.83;;;19.10;57.80;;;;;;5052526;28;20028;-66
2023/05/01 10:19:24;;;;;;;6.10;3.50;;;19.00;58.00;;;;;;5051209;28;20025;-66
2023/05/01 10:21:50;;;;;;;6.57;3.88;;;19.00;58.60;;;;;;5052191;28;20029;-68
2023/05/01 10:24:16;;;;;;;4.43;3.45;;;19.00;58.70;;;;;;5052350;28;20033;-66
2023/05/01 10:26:45;;;;;;;8.32;3.83;;;19.00;59.30;;;;;;5051999;28;20071;-67
2023/05/01 10:29:11;;;;;;;6.70;4.03;;;19.10;58.50;;;;;;5052327;28;20100;-66
2023/05/01 10:31:37;;;;;;;4.95;3.45;;;19.10;58.60;;;;;;5051751;28;20047;-67
2023/05/01 10:34:03;;;;;;;5.50;3.45;;;19.10;59.40;;;;;;5052087;28;20496;-66
2023/05/01 10:36:38;;;;;;;6.43;4.38;;;19.10;59.50;;;;;;5051902;28;20032;-72
2023/05/01 10:39:04;;;;;;;7.43;4.40;;;19.00;59.10;;;;;;5052338;28;20132;-67
2023/05/01 10:41:58;;;;;;;5.45;3.70;;;19.00;59.60;;;;;;5051707;28;20118;-67
2023/05/01 10:44:25;;;;;;;6.93;3.92;;;19.10;59.90;;;;;;5052059;28;20041;-66
2023/05/01 10:46:52;;;;;;;8.27;3.97;;;19.20;60.00;;;;;;5051774;28;20017;-67
2023/05/01 10:49:18;;;;;;;5.68;4.43;;;19.20;59.70;;;;;;5052095;28;20028;-67
2023/05/01 10:51:56;;;;;;;5.88;4.18;;;19.10;59.20;;;;;;5051370;28;20388;-67
2023/05/01 10:54:29;;;;;;;7.95;4.28;;;19.00;60.10;;;;;;5052313;28;20307;-67
2023/05/01 10:57:02;;;;;;;6.15;4.53;;;18.90;60.50;;;;;;5052094;28;20357;-66
2023/05/01 11:00:02;;;;;;;7.15;3.72;;;18.90;60.80;;;;;;5051613;28;20127;-67
2023/05/01 11:02:29;;;;;;;6.47;4.07;;;18.80;61.60;;;;;;5052618;28;20025;-67
2023/05/01 11:04:55;;;;;;;5.40;3.85;;;19.00;61.10;;;;;;5055286;28;20040;-67
2023/05/01 11:07:22;;;;;;;4.72;3.38;;;19.00;60.20;;;;;;5055591;28;20033;-67
2023/05/01 11:10:01;;;;;;;4.50;3.15;;;19.10;61.20;;;;;;5055138;28;20029;-67
2023/05/01 11:12:45;;;;;;;5.20;3.10;;;19.20;61.20;;;;;;5055218;28;20583;-67
2023/05/01 11:15:12;;;;;;;4.97;3.20;;;19.40;60.20;;;;;;5055411;28;20078;-67
2023/05/01 11:17:41;;;;;;;3.05;2.67;;;19.60;60.90;;;;;;5055007;28;20033;-67
2023/05/01 11:20:08;;;;;;;6.60;3.17;;;19.60;59.10;;;;;;5055447;28;20024;-67
2023/05/01 11:22:35;;;;;;;3.92;2.83;;;19.60;59.00;;;;;;5054673;28;20100;-67
2023/05/01 11:25:05;;;;;;;3.22;2.70;;;19.40;58.90;;;;;;5055099;28;20021;-67
2023/05/01 11:27:30;;;;;;;2.85;2.47;;;19.50;60.00;;;;;;5054937;28;20032;-67
2023/05/01 11:29:58;;;;;;;5.88;3.00;;;19.50;59.80;;;;;;5054774;28;20029;-67
2023/05/01 11:32:28;;;;;;;7.95;3.17;;;19.60;58.70;;;;;;5055036;28;20029;-67
2023/05/01 11:34:54;;;;;;;4.15;2.75;;;19.70;59.50;;;;;;5054686;28;20024;-67
2023/05/01 11:37:39;;;;;;;6.82;2.80;;;19.70;59.40;;;;;;5055021;28;20029;-66
2023/05/01 11:40:24;;;;;;;4.65;2.30;;;19.70;60.00;;;;;;5055081;28;20028;-65
2023/05/01 11:43:00;;;;;;;3.85;3.05;;;19.80;59.20;;;;;;5054598;28;20021;-66
2023/05/01 11:45:26;;;;;;;3.22;2.35;;;19.80;58.80;;;;;;5054619;28;20071;-66
2023/05/01 11:47:52;;;;;;;5.57;2.17;;;19.80;58.80;;;;;;5054727;28;20418;-66
2023/05/01 11:50:20;;;;;;;8.85;2.40;;;19.80;59.00;;;;;;5054610;28;20389;-66
2023/05/01 11:52:52;;;;;;;3.20;2.50;;;19.60;58.40;;;;;;5054107;28;20409;-66
2023/05/01 11:55:19;;;;;;;6.07;2.65;;;19.50;59.20;;;;;;5054898;28;20017;-67
2023/05/01 11:57:46;;;;;;;4.88;2.10;;;19.40;59.60;;;;;;5054267;28;20021;-67
2023/05/01 12:00:16;;;;;;;5.20;2.22;;;19.40;59.80;;;;;;5054451;28;20100;-67
2023/05/01 12:03:14;;;;;;;3.70;2.45;;;19.50;59.40;;;;;;5054101;28;20013;-67
2023/05/01 12:05:42;;;;;;;2.97;2.20;;;19.40;60.30;;;;;;5030827;28;20028;-67
2023/05/01 12:08:19;;;;;;;6.15;2.42;;;19.40;60.00;;;;;;5054288;28;20017;-67
2023/05/01 12:10:47;;;;;;;3.75;2.22;;;19.20;60.70;;;;;;5054078;28;20115;-67
2023/05/01 12:13:14;;;;;;;4.70;2.15;;;19.20;61.00;;;;;;5054164;28;20013;-67
2023/05/01 12:15:45;;;;;;;3.50;2.28;;;19.00;61.50;;;;;;5053823;28;20078;-68
2023/05/01 12:18:16;;;;;;;3.80;2.50;;;19.00;60.40;;;;;;5054310;28;20021;-66
2023/05/01 12:20:51;;;;;;;5.40;2.38;;;18.90;61.20;;;;;;5053832;28;20037;-66
2023/05/01 12:23:32;;;;;;;4.75;2.70;;;18.90;62.80;;;;;;5052977;28;20063;-67
2023/05/01 12:25:59;;;;;;;2.42;1.98;;;18.90;61.70;;;;;;5053777;28;20017;-67
2023/05/01 12:28:26;;;;;;;3.08;2.20;;;19.00;60.70;;;;;;5052762;28;20347;-67
2023/05/01 12:30:55;;;;;;;4.28;2.33;;;19.10;60.40;;;;;;5053774;28;20021;-67
2023/05/01 12:33:21;;;;;;;5.00;2.58;;;19.10;60.50;;;;;;5053941;28;20025;-68
2023/05/01 12:35:49;;;;;;;2.50;2.30;;;19.10;60.60;;;;;;5053588;28;20028;-67
2023/05/01 12:38:20;;;;;;;3.45;2.10;;;19.20;61.60;;;;;;5053963;28;20028;-67
2023/05/01 12:40:55;;;;;;;;;;;19.20;61.30;;;;;;5053821;28;20082;-67
2023/05/01 12:43:28;;;;;;;3.88;2.45;;;19.20;61.40;;;;;;5053890;28;19974;-67
2023/05/01 12:45:54;;;;;;;3.97;2.17;;;19.20;60.00;;;;;;5053045;28;20188;-67
2023/05/01 12:48:20;;;;;;;3.92;2.08;;;19.10;59.60;;;;;;5053935;28;20526;-67
2023/05/01 12:50:53;;;;;;;3.13;2.08;;;19.10;60.10;;;;;;5053329;28;20112;-67